Little York, New Jersey
Current Conditions -  °F | °C
As of 6:51 PM on Saturday 25 Oct 2014 (Local Time) from KABE Reporting Station
Broken Clouds Broken Clouds  
Wind Chill: 60°   Ceiling: 6500
Heat Index: 60°   Visibility: 10mi
Dew Point: 43°   Wind: 8mph
Humidity: 53%   Direction: 230°SW
Pressure: 29.65"   Gusts: NA
Location:  40.61°N, 75.08°W
Report Text: KABE 252251Z 23007KT 10SM BKN065 16/06 A2965 RMK AO2 SLP043 T01560061
Loading
Personal Weather Stations






























Interactive Weather Map
Tropical Storm Tracking
New forecast layout! Learn more

10-Day Weather Forecast

Advertisements
Track Severe Weather on mobile